sensor_id;sensor_type;location;lat;lon;timestamp;pressure;altitude;pressure_sealevel;temperature;humidity
55456;BME280;63021;52.836;6.376;2023-03-21T00:02:03;101631.59;;;9.58;83.69
55456;BME280;63021;52.836;6.376;2023-03-21T00:04:29;101631.50;;;9.60;83.26
55456;BME280;63021;52.836;6.376;2023-03-21T00:06:54;101632.47;;;9.59;83.75
55456;BME280;63021;52.836;6.376;2023-03-21T00:09:20;101622.78;;;9.58;83.46
55456;BME280;63021;52.836;6.376;2023-03-21T00:11:46;101631.50;;;9.60;83.27
55456;BME280;63021;52.836;6.376;2023-03-21T00:14:15;101633.19;;;9.61;83.12
55456;BME280;63021;52.836;6.376;2023-03-21T00:16:43;101625.44;;;9.58;83.60
55456;BME280;63021;52.836;6.376;2023-03-21T00:19:10;101632.34;;;9.60;83.70
55456;BME280;63021;52.836;6.376;2023-03-21T00:21:36;101630.75;;;9.58;83.74
55456;BME280;63021;52.836;6.376;2023-03-21T00:24:04;101623.53;;;9.60;83.75
55456;BME280;63021;52.836;6.376;2023-03-21T00:26:30;101620.88;;;9.60;83.36
55456;BME280;63021;52.836;6.376;2023-03-21T00:28:57;101626.19;;;9.60;83.38
55456;BME280;63021;52.836;6.376;2023-03-21T00:31:24;101620.00;;;9.59;83.56
55456;BME280;63021;52.836;6.376;2023-03-21T00:33:49;101611.56;;;9.54;84.14
55456;BME280;63021;52.836;6.376;2023-03-21T00:36:18;101618.44;;;9.57;83.89
55456;BME280;63021;52.836;6.376;2023-03-21T00:38:43;101612.28;;;9.56;83.30
55456;BME280;63021;52.836;6.376;2023-03-21T00:41:10;101613.13;;;9.57;83.93
55456;BME280;63021;52.836;6.376;2023-03-21T00:43:36;101614.56;;;9.61;84.26
55456;BME280;63021;52.836;6.376;2023-03-21T00:46:02;101610.94;;;9.62;83.84
55456;BME280;63021;52.836;6.376;2023-03-21T00:48:28;101605.63;;;9.62;83.90
55456;BME280;63021;52.836;6.376;2023-03-21T00:50:55;101600.81;;;9.56;83.48
55456;BME280;63021;52.836;6.376;2023-03-21T00:53:22;101607.34;;;9.63;84.31
55456;BME280;63021;52.836;6.376;2023-03-21T00:55:48;101607.59;;;9.60;83.96
55456;BME280;63021;52.836;6.376;2023-03-21T00:58:15;101608.28;;;9.62;84.00
55456;BME280;63021;52.836;6.376;2023-03-21T01:00:40;101602.13;;;9.61;83.98
55456;BME280;63021;52.836;6.376;2023-03-21T01:03:07;101599.59;;;9.60;84.21
55456;BME280;63021;52.836;6.376;2023-03-21T01:05:48;101587.97;;;9.61;83.96
55456;BME280;63021;52.836;6.376;2023-03-21T01:08:37;101587.16;;;9.60;83.92
55456;BME280;63021;52.836;6.376;2023-03-21T01:11:05;101581.97;;;9.59;84.27
55456;BME280;63021;52.836;6.376;2023-03-21T01:13:31;101589.81;;;9.60;83.66
55456;BME280;63021;52.836;6.376;2023-03-21T01:15:57;101587.03;;;9.62;84.26
55456;BME280;63021;52.836;6.376;2023-03-21T01:18:26;101583.41;;;9.63;84.39
55456;BME280;63021;52.836;6.376;2023-03-21T01:21:06;101577.09;;;9.64;84.03
55456;BME280;63021;52.836;6.376;2023-03-21T01:23:32;101577.34;;;9.61;84.19
55456;BME280;63021;52.836;6.376;2023-03-21T01:25:57;101570.00;;;9.64;83.87
55456;BME280;63021;52.836;6.376;2023-03-21T01:28:25;101576.88;;;9.67;83.77
55456;BME280;63021;52.836;6.376;2023-03-21T01:31:02;101577.84;;;9.66;83.96
55456;BME280;63021;52.836;6.376;2023-03-21T01:33:29;101577.09;;;9.64;84.37
55456;BME280;63021;52.836;6.376;2023-03-21T01:35:58;101579.63;;;9.65;84.35
55456;BME280;63021;52.836;6.376;2023-03-21T01:38:24;101570.94;;;9.63;84.07
55456;BME280;63021;52.836;6.376;2023-03-21T01:40:50;101572.91;;;9.61;83.64
55456;BME280;63021;52.836;6.376;2023-03-21T01:43:22;101574.31;;;9.65;84.04
55456;BME280;63021;52.836;6.376;2023-03-21T01:48:28;101559.59;;;9.61;83.64
55456;BME280;63021;52.836;6.376;2023-03-21T01:50:55;101564.94;;;9.61;84.08
55456;BME280;63021;52.836;6.376;2023-03-21T01:53:23;101569.13;;;9.64;84.24
55456;BME280;63021;52.836;6.376;2023-03-21T01:56:02;101563.94;;;9.62;84.12
55456;BME280;63021;52.836;6.376;2023-03-21T01:58:34;101560.44;;;9.62;84.08
55456;BME280;63021;52.836;6.376;2023-03-21T02:01:01;101555.97;;;9.62;83.97
55456;BME280;63021;52.836;6.376;2023-03-21T02:03:28;101546.06;;;9.64;84.51
55456;BME280;63021;52.836;6.376;2023-03-21T02:06:01;101548.59;;;9.66;84.63
55456;BME280;63021;52.836;6.376;2023-03-21T02:08:31;101544.25;;;9.65;84.49
55456;BME280;63021;52.836;6.376;2023-03-21T02:10:57;101542.31;;;9.67;84.36
55456;BME280;63021;52.836;6.376;2023-03-21T02:13:24;101517.28;;;9.58;84.42
55456;BME280;63021;52.836;6.376;2023-03-21T02:16:04;101537.00;;;9.67;84.32
55456;BME280;63021;52.836;6.376;2023-03-21T02:38:17;101506.44;;;9.61;84.05
55456;BME280;63021;52.836;6.376;2023-03-21T02:43:38;101510.88;;;9.61;83.86
55456;BME280;63021;52.836;6.376;2023-03-21T02:46:10;101513.56;;;9.61;84.04
55456;BME280;63021;52.836;6.376;2023-03-21T02:48:43;101503.91;;;9.60;84.68
55456;BME280;63021;52.836;6.376;2023-03-21T02:51:12;101504.63;;;9.62;84.27
55456;BME280;63021;52.836;6.376;2023-03-21T02:53:42;101493.28;;;9.60;84.13
55456;BME280;63021;52.836;6.376;2023-03-21T02:56:09;101493.28;;;9.60;83.86
55456;BME280;63021;52.836;6.376;2023-03-21T02:58:36;101493.28;;;9.60;84.57
55456;BME280;63021;52.836;6.376;2023-03-21T03:01:02;101491.19;;;9.63;84.05
55456;BME280;63021;52.836;6.376;2023-03-21T03:03:28;101491.81;;;9.67;84.28
55456;BME280;63021;52.836;6.376;2023-03-21T03:05:56;101499.66;;;9.68;83.59
55456;BME280;63021;52.836;6.376;2023-03-21T03:11:29;101498.66;;;9.69;84.20
55456;BME280;63021;52.836;6.376;2023-03-21T03:22:54;101488.16;;;9.68;84.10
55456;BME280;63021;52.836;6.376;2023-03-21T03:25:27;101482.25;;;9.64;83.62
55456;BME280;63021;52.836;6.376;2023-03-21T03:27:55;101481.41;;;9.64;84.04
55456;BME280;63021;52.836;6.376;2023-03-21T03:30:24;101476.22;;;9.62;83.60
55456;BME280;63021;52.836;6.376;2023-03-21T03:32:54;101483.22;;;9.63;84.13
55456;BME280;63021;52.836;6.376;2023-03-21T03:35:23;101478.16;;;9.60;84.02
55456;BME280;63021;52.836;6.376;2023-03-21T03:37:54;101483.84;;;9.67;83.70
55456;BME280;63021;52.836;6.376;2023-03-21T03:40:33;101485.63;;;9.66;84.07
55456;BME280;63021;52.836;6.376;2023-03-21T03:43:04;101479.47;;;9.66;84.12
55456;BME280;63021;52.836;6.376;2023-03-21T03:45:39;101480.44;;;9.65;84.36
55456;BME280;63021;52.836;6.376;2023-03-21T03:48:53;101479.47;;;9.66;83.92
55456;BME280;63021;52.836;6.376;2023-03-21T03:51:24;101478.50;;;9.67;84.53
55456;BME280;63021;52.836;6.376;2023-03-21T03:54:03;101481.16;;;9.67;83.84
55456;BME280;63021;52.836;6.376;2023-03-21T03:56:32;101477.66;;;9.66;84.14
55456;BME280;63021;52.836;6.376;2023-03-21T03:58:57;101483.69;;;9.68;83.95
55456;BME280;63021;52.836;6.376;2023-03-21T04:01:25;101479.22;;;9.69;84.45
55456;BME280;63021;52.836;6.376;2023-03-21T04:03:54;101471.25;;;9.69;83.54
55456;BME280;63021;52.836;6.376;2023-03-21T04:06:19;101468.84;;;9.66;84.00
55456;BME280;63021;52.836;6.376;2023-03-21T04:08:46;101456.06;;;9.60;84.35
55456;BME280;63021;52.836;6.376;2023-03-21T04:11:14;101472.06;;;9.69;84.29
55456;BME280;63021;52.836;6.376;2023-03-21T04:13:42;101467.75;;;9.68;84.31
55456;BME280;63021;52.836;6.376;2023-03-21T04:16:09;101472.22;;;9.68;83.83
55456;BME280;63021;52.836;6.376;2023-03-21T04:18:37;101471.38;;;9.67;83.71
55456;BME280;63021;52.836;6.376;2023-03-21T04:21:07;101472.22;;;9.68;83.93
55456;BME280;63021;52.836;6.376;2023-03-21T04:23:32;101466.88;;;9.68;83.83
55456;BME280;63021;52.836;6.376;2023-03-21T04:25:59;101468.72;;;9.67;84.29
55456;BME280;63021;52.836;6.376;2023-03-21T04:28:25;101454.81;;;9.64;83.85
55456;BME280;63021;52.836;6.376;2023-03-21T04:30:50;101459.91;;;9.67;83.69
55456;BME280;63021;52.836;6.376;2023-03-21T04:33:18;101464.22;;;9.68;83.90
55456;BME280;63021;52.836;6.376;2023-03-21T04:35:43;101453.97;;;9.63;84.17
55456;BME280;63021;52.836;6.376;2023-03-21T04:38:10;101448.78;;;9.62;83.77
55456;BME280;63021;52.836;6.376;2023-03-21T04:40:37;101451.94;;;9.67;83.48
55456;BME280;63021;52.836;6.376;2023-03-21T04:43:03;101457.00;;;9.70;83.95
55456;BME280;63021;52.836;6.376;2023-03-21T04:45:28;101452.50;;;9.70;84.11
55456;BME280;63021;52.836;6.376;2023-03-21T04:47:57;101445.50;;;9.69;83.73
55456;BME280;63021;52.836;6.376;2023-03-21T04:50:23;101451.81;;;9.68;84.04
55456;BME280;63021;52.836;6.376;2023-03-21T04:52:48;101435.97;;;9.67;83.85
55456;BME280;63021;52.836;6.376;2023-03-21T04:55:14;101435.25;;;9.65;83.97
55456;BME280;63021;52.836;6.376;2023-03-21T04:57:40;101437.78;;;9.66;83.92
55456;BME280;63021;52.836;6.376;2023-03-21T05:00:09;101435.97;;;9.67;83.43
55456;BME280;63021;52.836;6.376;2023-03-21T05:02:35;101435.13;;;9.66;84.02
55456;BME280;63021;52.836;6.376;2023-03-21T05:05:00;101439.59;;;9.66;83.71
55456;BME280;63021;52.836;6.376;2023-03-21T05:07:26;101432.84;;;9.62;83.50
55456;BME280;63021;52.836;6.376;2023-03-21T05:09:51;101417.97;;;9.59;83.90
55456;BME280;63021;52.836;6.376;2023-03-21T05:12:17;101431.75;;;9.64;84.04
55456;BME280;63021;52.836;6.376;2023-03-21T05:14:43;101425.81;;;9.61;83.90
55456;BME280;63021;52.836;6.376;2023-03-21T05:17:09;101425.81;;;9.61;84.02
55456;BME280;63021;52.836;6.376;2023-03-21T05:19:35;101410.41;;;9.54;83.92
55456;BME280;63021;52.836;6.376;2023-03-21T05:22:06;101429.09;;;9.64;83.62
55456;BME280;63021;52.836;6.376;2023-03-21T05:24:33;101435.97;;;9.67;83.77
55456;BME280;63021;52.836;6.376;2023-03-21T05:26:59;101438.63;;;9.67;83.30
55456;BME280;63021;52.836;6.376;2023-03-21T05:29:31;101433.31;;;9.67;83.82
55456;BME280;63021;52.836;6.376;2023-03-21T05:31:58;101440.56;;;9.65;84.00
55456;BME280;63021;52.836;6.376;2023-03-21T05:34:24;101426.69;;;9.61;83.94
55456;BME280;63021;52.836;6.376;2023-03-21T05:36:51;101435.38;;;9.63;83.76
55456;BME280;63021;52.836;6.376;2023-03-21T05:39:17;101424.88;;;9.62;83.27
55456;BME280;63021;52.836;6.376;2023-03-21T05:41:43;101428.47;;;9.61;83.62
55456;BME280;63021;52.836;6.376;2023-03-21T05:44:08;101424.88;;;9.62;84.25
55456;BME280;63021;52.836;6.376;2023-03-21T05:46:34;101430.19;;;9.62;84.26
55456;BME280;63021;52.836;6.376;2023-03-21T05:48:59;101423.16;;;9.61;83.76
55456;BME280;63021;52.836;6.376;2023-03-21T05:51:25;101432.97;;;9.60;83.93
55456;BME280;63021;52.836;6.376;2023-03-21T05:53:50;101431.41;;;9.58;84.05
55456;BME280;63021;52.836;6.376;2023-03-21T05:56:17;101421.84;;;9.55;83.54
55456;BME280;63021;52.836;6.376;2023-03-21T05:58:42;101433.09;;;9.59;83.41
55456;BME280;63021;52.836;6.376;2023-03-21T06:01:07;101426.09;;;9.58;83.58
55456;BME280;63021;52.836;6.376;2023-03-21T06:03:33;101427.91;;;9.57;84.17
55456;BME280;63021;52.836;6.376;2023-03-21T06:05:59;101435.03;;;9.57;84.13
55456;BME280;63021;52.836;6.376;2023-03-21T06:08:25;101421.41;;;9.50;83.96
55456;BME280;63021;52.836;6.376;2023-03-21T06:10:50;101430.69;;;9.56;83.71
55456;BME280;63021;52.836;6.376;2023-03-21T06:13:15;101429.13;;;9.53;84.34
55456;BME280;63021;52.836;6.376;2023-03-21T06:15:41;101432.50;;;9.55;83.58
55456;BME280;63021;52.836;6.376;2023-03-21T06:18:06;101419.13;;;9.45;84.07
55456;BME280;63021;52.836;6.376;2023-03-21T06:20:33;101435.28;;;9.53;83.66
55456;BME280;63021;52.836;6.376;2023-03-21T06:22:59;101432.63;;;9.53;83.95
55456;BME280;63021;52.836;6.376;2023-03-21T06:25:24;101426.59;;;9.51;83.88
55456;BME280;63021;52.836;6.376;2023-03-21T06:27:50;101419.00;;;9.47;84.39
55456;BME280;63021;52.836;6.376;2023-03-21T06:30:16;101428.28;;;9.52;84.39
55456;BME280;63021;52.836;6.376;2023-03-21T06:32:42;101415.75;;;9.43;84.32
55456;BME280;63021;52.836;6.376;2023-03-21T06:35:08;101417.56;;;9.43;84.43
55456;BME280;63021;52.836;6.376;2023-03-21T06:37:33;101430.09;;;9.52;83.91
55456;BME280;63021;52.836;6.376;2023-03-21T06:39:59;101434.31;;;9.54;84.65
55456;BME280;63021;52.836;6.376;2023-03-21T06:42:24;101427.56;;;9.50;84.33
55456;BME280;63021;52.836;6.376;2023-03-21T06:44:49;101413.44;;;9.50;83.91
55456;BME280;63021;52.836;6.376;2023-03-21T06:47:15;101429.00;;;9.54;84.18
55456;BME280;63021;52.836;6.376;2023-03-21T06:49:40;101430.69;;;9.56;84.23
55456;BME280;63021;52.836;6.376;2023-03-21T06:52:08;101429.84;;;9.55;84.42
55456;BME280;63021;52.836;6.376;2023-03-21T06:54:34;101427.44;;;9.52;84.41
55456;BME280;63021;52.836;6.376;2023-03-21T06:57:01;101436.84;;;9.56;84.45
55456;BME280;63021;52.836;6.376;2023-03-21T06:59:27;101439.50;;;9.56;84.84
55456;BME280;63021;52.836;6.376;2023-03-21T07:01:53;101430.69;;;9.56;84.61
55456;BME280;63021;52.836;6.376;2023-03-21T07:04:18;101441.47;;;9.54;84.61
55456;BME280;63021;52.836;6.376;2023-03-21T07:06:44;101433.63;;;9.52;84.73
55456;BME280;63021;52.836;6.376;2023-03-21T07:09:09;101437.69;;;9.57;84.32
55456;BME280;63021;52.836;6.376;2023-03-21T07:11:35;101442.03;;;9.58;84.86
55456;BME280;63021;52.836;6.376;2023-03-21T07:14:01;101446.66;;;9.56;84.50
55456;BME280;63021;52.836;6.376;2023-03-21T07:16:26;101450.84;;;9.58;84.76
55456;BME280;63021;52.836;6.376;2023-03-21T07:18:52;101437.94;;;9.53;84.75
55456;BME280;63021;52.836;6.376;2023-03-21T07:21:19;101450.84;;;9.58;84.81
55456;BME280;63021;52.836;6.376;2023-03-21T07:23:46;101450.13;;;9.56;84.68
55456;BME280;63021;52.836;6.376;2023-03-21T07:26:12;101446.66;;;9.56;84.33
55456;BME280;63021;52.836;6.376;2023-03-21T07:28:40;101450.13;;;9.56;84.26
55456;BME280;63021;52.836;6.376;2023-03-21T07:31:05;101443.00;;;9.57;84.41
55456;BME280;63021;52.836;6.376;2023-03-21T07:33:31;101446.50;;;9.57;84.56
55456;BME280;63021;52.836;6.376;2023-03-21T07:35:58;101446.38;;;9.59;84.70
55456;BME280;63021;52.836;6.376;2023-03-21T07:38:24;101443.72;;;9.59;84.65
55456;BME280;63021;52.836;6.376;2023-03-21T07:40:50;101439.38;;;9.58;84.77
55456;BME280;63021;52.836;6.376;2023-03-21T07:43:15;101440.81;;;9.62;84.46
55456;BME280;63021;52.836;6.376;2023-03-21T07:45:41;101441.78;;;9.61;84.18
55456;BME280;63021;52.836;6.376;2023-03-21T07:48:08;101435.50;;;9.62;84.01
55456;BME280;63021;52.836;6.376;2023-03-21T07:50:38;101435.38;;;9.63;84.80
55456;BME280;63021;52.836;6.376;2023-03-21T07:53:04;101422.13;;;9.52;84.11
55456;BME280;63021;52.836;6.376;2023-03-21T07:55:29;101435.38;;;9.63;84.65
55456;BME280;63021;52.836;6.376;2023-03-21T07:57:59;101433.53;;;9.64;84.60
55456;BME280;63021;52.836;6.376;2023-03-21T08:00:24;101436.94;;;9.66;84.53
55456;BME280;63021;52.836;6.376;2023-03-21T08:02:54;101434.28;;;9.66;84.38
55456;BME280;63021;52.836;6.376;2023-03-21T08:05:21;101426.81;;;9.60;83.93
55456;BME280;63021;52.836;6.376;2023-03-21T08:07:47;101437.06;;;9.64;84.63
55456;BME280;63021;52.836;6.376;2023-03-21T08:10:13;101436.34;;;9.62;84.17
55456;BME280;63021;52.836;6.376;2023-03-21T08:12:38;101424.25;;;9.58;84.13
55456;BME280;63021;52.836;6.376;2023-03-21T08:15:04;101437.19;;;9.63;84.32
55456;BME280;63021;52.836;6.376;2023-03-21T08:17:30;101433.66;;;9.62;84.40
55456;BME280;63021;52.836;6.376;2023-03-21T08:19:55;101436.94;;;9.66;84.03
55456;BME280;63021;52.836;6.376;2023-03-21T08:22:21;101439.47;;;9.67;84.29
55456;BME280;63021;52.836;6.376;2023-03-21T08:24:46;101426.19;;;9.67;84.49
55456;BME280;63021;52.836;6.376;2023-03-21T08:27:12;101431.97;;;9.73;84.61
55456;BME280;63021;52.836;6.376;2023-03-21T08:29:38;101424.09;;;9.71;83.98
55456;BME280;63021;52.836;6.376;2023-03-21T08:32:06;101429.19;;;9.74;84.46
55456;BME280;63021;52.836;6.376;2023-03-21T08:34:32;101429.19;;;9.74;84.39
55456;BME280;63021;52.836;6.376;2023-03-21T08:36:57;101425.28;;;9.78;84.36
55456;BME280;63021;52.836;6.376;2023-03-21T08:39:23;101429.63;;;9.79;84.76
55456;BME280;63021;52.836;6.376;2023-03-21T08:41:49;101430.50;;;9.80;84.80
55456;BME280;63021;52.836;6.376;2023-03-21T08:44:14;101430.50;;;9.80;84.51
55456;BME280;63021;52.836;6.376;2023-03-21T08:46:41;101430.34;;;9.81;84.79
55456;BME280;63021;52.836;6.376;2023-03-21T08:49:06;101426.72;;;9.82;84.27
55456;BME280;63021;52.836;6.376;2023-03-21T08:51:33;101412.97;;;9.77;84.58
55456;BME280;63021;52.836;6.376;2023-03-21T08:53:58;101423.91;;;9.84;84.26
55456;BME280;63021;52.836;6.376;2023-03-21T08:56:23;101404.72;;;9.80;83.85
55456;BME280;63021;52.836;6.376;2023-03-21T08:58:49;101414.16;;;9.84;84.48
55456;BME280;63021;52.836;6.376;2023-03-21T09:01:14;101414.97;;;9.85;84.33
55456;BME280;63021;52.836;6.376;2023-03-21T09:03:41;101410.63;;;9.84;84.54
55456;BME280;63021;52.836;6.376;2023-03-21T09:06:08;101412.44;;;9.83;84.13
55456;BME280;63021;52.836;6.376;2023-03-21T09:08:36;101412.44;;;9.83;84.30
55456;BME280;63021;52.836;6.376;2023-03-21T09:11:02;101421.03;;;9.87;84.39
55456;BME280;63021;52.836;6.376;2023-03-21T09:13:29;101414.84;;;9.86;83.66
55456;BME280;63021;52.836;6.376;2023-03-21T09:15:55;101407.72;;;9.87;84.49
55456;BME280;63021;52.836;6.376;2023-03-21T09:18:22;101407.59;;;9.88;83.94
55456;BME280;63021;52.836;6.376;2023-03-21T09:21:08;101395.53;;;9.84;83.37
55456;BME280;63021;52.836;6.376;2023-03-21T09:23:42;101398.19;;;9.84;84.04
55456;BME280;63021;52.836;6.376;2023-03-21T09:26:09;101396.22;;;9.86;83.98
55456;BME280;63021;52.836;6.376;2023-03-21T09:28:35;101402.03;;;9.92;83.73
55456;BME280;63021;52.836;6.376;2023-03-21T09:31:03;101399.34;;;9.92;83.90
55456;BME280;63021;52.836;6.376;2023-03-21T09:33:30;101398.25;;;9.94;83.97
55456;BME280;63021;52.836;6.376;2023-03-21T09:35:56;101393.78;;;9.95;83.98
55456;BME280;63021;52.836;6.376;2023-03-21T09:38:25;101393.50;;;9.98;83.81
55456;BME280;63021;52.836;6.376;2023-03-21T09:41:02;101397.13;;;9.97;83.53
55456;BME280;63021;52.836;6.376;2023-03-21T09:43:48;101391.81;;;9.97;83.71
55456;BME280;63021;52.836;6.376;2023-03-21T09:49:09;101389.75;;;10.00;83.60
55456;BME280;63021;52.836;6.376;2023-03-21T09:51:42;101386.38;;;9.98;83.68
55456;BME280;63021;52.836;6.376;2023-03-21T09:54:20;101378.53;;;9.97;83.42
55456;BME280;63021;52.836;6.376;2023-03-21T09:56:48;101383.34;;;10.03;83.49
55456;BME280;63021;52.836;6.376;2023-03-21T09:59:22;101387.53;;;10.05;83.47
55456;BME280;63021;52.836;6.376;2023-03-21T10:01:50;101377.16;;;10.02;83.11
55456;BME280;63021;52.836;6.376;2023-03-21T10:04:16;101387.31;;;10.09;83.51
55456;BME280;63021;52.836;6.376;2023-03-21T10:06:46;101376.06;;;10.05;83.84
55456;BME280;63021;52.836;6.376;2023-03-21T10:09:21;101389.56;;;10.13;83.19
55456;BME280;63021;52.836;6.376;2023-03-21T10:12:04;101380.47;;;10.16;83.74
55456;BME280;63021;52.836;6.376;2023-03-21T10:14:43;101373.06;;;10.19;83.49
55456;BME280;63021;52.836;6.376;2023-03-21T10:20:14;101358.38;;;10.25;83.43
55456;BME280;63021;52.836;6.376;2023-03-21T10:22:40;101356.47;;;10.27;83.27
55456;BME280;63021;52.836;6.376;2023-03-21T10:25:10;101334.72;;;10.22;83.29
55456;BME280;63021;52.836;6.376;2023-03-21T10:27:38;101339.22;;;10.31;82.86
55456;BME280;63021;52.836;6.376;2023-03-21T10:30:05;101340.69;;;10.35;83.56
55456;BME280;63021;52.836;6.376;2023-03-21T10:32:32;101340.41;;;10.38;83.24
55456;BME280;63021;52.836;6.376;2023-03-21T10:34:58;101339.03;;;10.44;83.38
55456;BME280;63021;52.836;6.376;2023-03-21T10:37:25;101337.78;;;10.48;83.67
55456;BME280;63021;52.836;6.376;2023-03-21T10:39:52;101341.19;;;10.50;83.72
55456;BME280;63021;52.836;6.376;2023-03-21T10:42:24;101340.78;;;10.55;83.44
55456;BME280;63021;52.836;6.376;2023-03-21T10:44:53;101341.34;;;10.58;83.46
55456;BME280;63021;52.836;6.376;2023-03-21T10:47:48;101341.78;;;10.64;83.48
55456;BME280;63021;52.836;6.376;2023-03-21T10:50:16;101333.19;;;10.60;83.43
55456;BME280;63021;52.836;6.376;2023-03-21T10:52:49;101320.94;;;10.69;83.26
55456;BME280;63021;52.836;6.376;2023-03-21T10:55:20;101331.56;;;10.79;82.86
55456;BME280;63021;52.836;6.376;2023-03-21T10:57:47;101326.69;;;10.84;82.82
55456;BME280;63021;52.836;6.376;2023-03-21T11:00:19;101309.31;;;10.80;83.43
55456;BME280;63021;52.836;6.376;2023-03-21T11:02:50;101318.88;;;10.92;82.92
55456;BME280;63021;52.836;6.376;2023-03-21T11:05:19;101310.59;;;10.95;83.06
55456;BME280;63021;52.836;6.376;2023-03-21T11:07:47;101291.38;;;10.91;83.27
55456;BME280;63021;52.836;6.376;2023-03-21T11:10:25;101290.97;;;10.96;82.96
55456;BME280;63021;52.836;6.376;2023-03-21T11:12:55;101301.78;;;11.14;83.13
55456;BME280;63021;52.836;6.376;2023-03-21T11:15:27;101274.16;;;11.05;82.96
55456;BME280;63021;52.836;6.376;2023-03-21T11:17:54;101293.94;;;11.22;83.01
55456;BME280;63021;52.836;6.376;2023-03-21T11:20:20;101297.56;;;11.21;82.90
55456;BME280;63021;52.836;6.376;2023-03-21T11:22:47;101295.47;;;11.35;82.95
55456;BME280;63021;52.836;6.376;2023-03-21T11:25:40;101288.88;;;11.39;82.29
55456;BME280;63021;52.836;6.376;2023-03-21T11:28:12;101299.38;;;11.40;82.38
55456;BME280;63021;52.836;6.376;2023-03-21T11:30:52;101291.69;;;11.47;82.05
55456;BME280;63021;52.836;6.376;2023-03-21T11:33:19;101251.00;;;11.35;82.25
55456;BME280;63021;52.836;6.376;2023-03-21T11:35:57;101268.50;;;11.48;81.91
55456;BME280;63021;52.836;6.376;2023-03-21T11:38:28;101296.56;;;11.61;81.75
55456;BME280;63021;52.836;6.376;2023-03-21T11:40:59;101268.94;;;11.63;81.45
55456;BME280;63021;52.836;6.376;2023-03-21T11:43:28;101273.13;;;11.65;81.16
55456;BME280;63021;52.836;6.376;2023-03-21T11:48:32;101282.25;;;11.72;81.24
55456;BME280;63021;52.836;6.376;2023-03-21T11:51:15;101276.63;;;11.75;80.75
55456;BME280;63021;52.836;6.376;2023-03-21T11:54:09;101294.16;;;11.78;80.53
55456;BME280;63021;52.836;6.376;2023-03-21T11:56:51;101264.25;;;11.84;80.60
55456;BME280;63021;52.836;6.376;2023-03-21T12:02:25;101256.47;;;12.01;80.71
55456;BME280;63021;52.836;6.376;2023-03-21T12:04:53;101260.25;;;12.08;80.10
55456;BME280;63021;52.836;6.376;2023-03-21T12:07:32;101270.63;;;12.11;80.05
55456;BME280;63021;52.836;6.376;2023-03-21T12:10:25;101259.81;;;12.12;79.72
55456;BME280;63021;52.836;6.376;2023-03-21T12:16:17;101256.06;;;12.05;78.57
55456;BME280;63021;52.836;6.376;2023-03-21T12:22:00;101244.56;;;11.95;77.96
55456;BME280;63021;52.836;6.376;2023-03-21T12:32:35;101234.47;;;11.79;77.75
55456;BME280;63021;52.836;6.376;2023-03-21T12:37:52;101237.72;;;11.73;77.20
55456;BME280;63021;52.836;6.376;2023-03-21T12:43:30;101233.00;;;11.67;77.38
55456;BME280;63021;52.836;6.376;2023-03-21T12:46:02;101214.78;;;11.52;77.19
55456;BME280;63021;52.836;6.376;2023-03-21T12:48:37;101239.16;;;11.57;77.61
55456;BME280;63021;52.836;6.376;2023-03-21T12:51:11;101238.34;;;11.57;77.74
55456;BME280;63021;52.836;6.376;2023-03-21T12:56:19;101246.47;;;11.55;77.46
55456;BME280;63021;52.836;6.376;2023-03-21T12:59:13;101207.16;;;11.57;77.74
55456;BME280;63021;52.836;6.376;2023-03-21T13:01:42;101224.41;;;11.63;77.59
55456;BME280;63021;52.836;6.376;2023-03-21T13:04:40;101217.97;;;11.66;77.68
55456;BME280;63021;52.836;6.376;2023-03-21T13:07:09;101211.66;;;11.67;77.87
55456;BME280;63021;52.836;6.376;2023-03-21T13:09:40;101208.69;;;11.70;78.17
55456;BME280;63021;52.836;6.376;2023-03-21T13:22:54;101194.50;;;11.69;77.86
55456;BME280;63021;52.836;6.376;2023-03-21T13:25:22;101188.84;;;11.82;77.28
55456;BME280;63021;52.836;6.376;2023-03-21T13:28:28;101163.47;;;11.78;77.03
55456;BME280;63021;52.836;6.376;2023-03-21T13:31:29;101167.91;;;11.87;77.19
55456;BME280;63021;52.836;6.376;2023-03-21T13:33:58;101176.59;;;11.89;77.09
55456;BME280;63021;52.836;6.376;2023-03-21T13:36:26;101164.25;;;11.88;76.87
55456;BME280;63021;52.836;6.376;2023-03-21T13:39:03;101168.19;;;11.94;76.91
55456;BME280;63021;52.836;6.376;2023-03-21T13:41:36;101168.03;;;11.95;77.43
55456;BME280;63021;52.836;6.376;2023-03-21T13:44:40;101164.94;;;12.00;76.77
55456;BME280;63021;52.836;6.376;2023-03-21T13:55:43;101144.63;;;12.17;76.73
55456;BME280;63021;52.836;6.376;2023-03-21T13:58:39;101142.56;;;12.29;77.03
55456;BME280;63021;52.836;6.376;2023-03-21T14:01:30;101130.84;;;12.40;76.41
55456;BME280;63021;52.836;6.376;2023-03-21T14:07:01;101132.03;;;12.63;76.31
55456;BME280;63021;52.836;6.376;2023-03-21T14:09:33;101137.16;;;12.75;76.39
55456;BME280;63021;52.836;6.376;2023-03-21T14:12:02;101135.84;;;12.79;76.12
55456;BME280;63021;52.836;6.376;2023-03-21T14:14:50;101118.72;;;12.90;75.45
55456;BME280;63021;52.836;6.376;2023-03-21T14:17:24;101122.59;;;12.95;75.33
55456;BME280;63021;52.836;6.376;2023-03-21T14:20:14;101112.47;;;12.99;74.83
55456;BME280;63021;52.836;6.376;2023-03-21T14:22:41;101118.94;;;12.96;73.86
55456;BME280;63021;52.836;6.376;2023-03-21T14:25:11;101120.09;;;12.94;73.66
55456;BME280;63021;52.836;6.376;2023-03-21T14:27:42;101119.59;;;12.90;73.33
55456;BME280;63021;52.836;6.376;2023-03-21T14:30:20;101121.56;;;12.88;72.43
55456;BME280;63021;52.836;6.376;2023-03-21T14:32:47;101106.66;;;12.86;72.12
55456;BME280;63021;52.836;6.376;2023-03-21T14:35:12;101098.81;;;12.84;71.86
55456;BME280;63021;52.836;6.376;2023-03-21T14:37:41;101097.16;;;12.83;72.40
55456;BME280;63021;52.836;6.376;2023-03-21T14:40:27;101093.03;;;12.89;71.95
55456;BME280;63021;52.836;6.376;2023-03-21T14:42:54;101085.00;;;12.89;71.84
55456;BME280;63021;52.836;6.376;2023-03-21T14:45:28;101082.34;;;12.89;71.13